Time;durP1;ratioP1;P1;durP2;ratioP2;P2;SDS_P1;SDS_P2;PMS_P1;PMS_P2;Temp;Humidity;BMP_temperature;BMP_pressure;BME280_temperature;BME280_humidity;BME280_pressure;Samples;Min_cycle;Max_cycle;Signal;HPM_P1;HPM_P2
2021/01/02 00:01:22;;;;;;;;;;;;;;;21.02;31.25;99868.31;5051839;28;19925;-64
2021/01/02 00:03:52;;;;;;;;;;;;;;;21.01;31.13;99863.91;5051602;28;19929;-63
2021/01/02 00:06:27;;;;;;;;;;;;;;;20.99;31.33;99855.06;5052771;28;19928;-63
2021/01/02 00:09:03;;;;;;;;;;;;;;;20.97;31.44;99860.91;5035007;28;19925;-64
2021/01/02 00:11:38;;;;;;;;;;;;;;;20.96;31.41;99859.25;5052665;28;20018;-64
2021/01/02 00:14:11;;;;;;;;;;;;;;;20.99;31.40;99860.59;5048703;28;20429;-64
2021/01/02 00:16:43;;;;;;;;;;;;;;;20.96;31.13;99861.19;5052511;28;19924;-64
2021/01/02 00:19:16;;;;;;;;;;;;;;;20.97;31.36;99860.06;5052474;28;19924;-65
2021/01/02 00:21:57;;;;;;;;;;;;;;;20.97;31.36;99855.34;5052866;28;20382;-65
2021/01/02 00:24:24;;;;;;;;;;;;;;;20.97;31.41;99860.91;5050936;28;19929;-65
2021/01/02 00:27:04;;;;;;;;;;;;;;;20.97;31.23;99865.59;5046145;28;20006;-64
2021/01/02 00:29:40;;;;;;;;;;;;;;;20.94;31.38;99863.41;5048745;28;19925;-64
2021/01/02 00:32:24;;;;;;;;;;;;;;;20.94;31.30;99858.72;5053473;28;20020;-65
2021/01/02 00:34:50;;;;;;;;;;;;;;;20.92;31.25;99854.56;5022957;28;20409;-64
2021/01/02 00:37:37;;;;;;;;;;;;;;;20.90;31.43;99863.19;5052124;28;19951;-64
2021/01/02 00:40:08;;;;;;;;;;;;;;;20.90;31.40;99862.34;5050874;28;20016;-66
2021/01/02 00:42:34;;;;;;;;;;;;;;;20.91;31.39;99869.53;5050836;28;19972;-65
2021/01/02 00:45:01;;;;;;;;;;;;;;;20.88;31.39;99868.19;5034050;28;20027;-63
2021/01/02 00:47:28;;;;;;;;;;;;;;;20.87;31.50;99874.84;5044010;23;19909;-58
2021/01/02 00:49:55;;;;;;;;;;;;;;;20.92;31.43;99869.25;5054481;28;19924;-58
2021/01/02 00:52:40;;;;;;;;;;;;;;;20.96;31.20;99873.09;5072521;28;19924;-57
2021/01/02 00:55:09;;;;;;;;;;;;;;;20.97;31.44;99873.91;5091897;28;19932;-58
2021/01/02 00:57:51;;;;;;;;;;;;;;;20.98;31.47;99881.13;5092466;28;20401;-58
2021/01/02 01:00:17;;;;;;;;;;;;;;;20.98;31.20;99879.16;5042738;28;20111;-57
2021/01/02 01:03:01;;;;;;;;;;;;;;;20.97;31.23;99879.47;5092903;28;19931;-58
2021/01/02 01:05:32;;;;;;;;;;;;;;;20.95;31.15;99892.78;5092114;28;19924;-58
2021/01/02 01:07:58;;;;;;;;;;;;;;;20.94;31.24;99885.59;5058247;28;19977;-58
2021/01/02 01:10:29;;;;;;;;;;;;;;;20.92;31.11;99885.88;5092567;28;20015;-58
2021/01/02 01:13:04;;;;;;;;;;;;;;;20.91;31.08;99889.75;5088829;28;19924;-58
2021/01/02 01:15:30;;;;;;;;;;;;;;;20.88;31.17;99892.28;5092667;28;19924;-58
2021/01/02 01:18:01;;;;;;;;;;;;;;;20.86;31.46;99889.81;5092523;28;19970;-58
2021/01/02 01:20:29;;;;;;;;;;;;;;;20.89;31.00;99899.47;5074604;28;19924;-59
2021/01/02 01:23:11;;;;;;;;;;;;;;;20.91;31.05;99892.53;5098329;28;19952;-58
2021/01/02 01:25:39;;;;;;;;;;;;;;;20.90;30.93;99893.66;5092085;28;20019;-58
2021/01/02 01:28:06;;;;;;;;;;;;;;;20.92;31.02;99896.97;5090227;28;19963;-59
2021/01/02 01:30:35;;;;;;;;;;;;;;;20.92;30.97;99902.50;5091607;28;20018;-58
2021/01/02 01:33:02;;;;;;;;;;;;;;;20.89;30.76;99893.94;5090967;28;19928;-58
2021/01/02 01:35:29;;;;;;;;;;;;;;;20.90;30.55;99901.13;5092092;28;19951;-58
2021/01/02 01:37:56;;;;;;;;;;;;;;;20.89;30.52;99905.84;5093461;28;19928;-58
2021/01/02 01:40:23;;;;;;;;;;;;;;;20.87;30.63;99897.00;5093616;28;20351;-58
2021/01/02 01:43:00;;;;;;;;;;;;;;;20.88;30.45;99900.59;5091920;28;19962;-58
2021/01/02 01:45:39;;;;;;;;;;;;;;;20.87;30.57;99905.31;5073358;28;19931;-57
2021/01/02 01:48:06;;;;;;;;;;;;;;;20.85;30.51;99903.94;5072986;28;19932;-57
2021/01/02 01:50:51;;;;;;;;;;;;;;;20.84;30.64;99907.84;5074797;28;20349;-57
2021/01/02 01:53:28;;;;;;;;;;;;;;;20.82;30.67;99910.91;5080612;28;19967;-57
2021/01/02 01:56:03;;;;;;;;;;;;;;;20.80;30.67;99906.75;5090817;28;20378;-57
2021/01/02 01:58:37;;;;;;;;;;;;;;;20.80;30.73;99906.75;5075506;28;20011;-56
2021/01/02 02:01:03;;;;;;;;;;;;;;;20.77;30.54;99907.38;5099547;28;19973;-58
2021/01/02 02:03:33;;;;;;;;;;;;;;;20.74;30.65;99904.06;5074195;28;19967;-57
2021/01/02 02:06:01;;;;;;;;;;;;;;;20.74;30.42;99906.84;5071289;28;19924;-56
2021/01/02 02:08:31;;;;;;;;;;;;;;;20.74;30.49;99909.59;5077076;28;19925;-59
2021/01/02 02:11:02;;;;;;;;;;;;;;;20.75;30.39;99915.97;5073745;28;19959;-57
2021/01/02 02:13:29;;;;;;;;;;;;;;;20.74;30.46;99909.59;5082232;28;20436;-63
2021/01/02 02:15:56;;;;;;;;;;;;;;;20.74;30.15;99915.16;5085552;28;20309;-58
2021/01/02 02:18:23;;;;;;;;;;;;;;;20.73;30.27;99905.19;5079372;28;19997;-59
2021/01/02 02:20:52;;;;;;;;;;;;;;;20.72;30.29;99906.31;5092984;28;19969;-58
2021/01/02 02:23:42;;;;;;;;;;;;;;;20.70;30.17;99913.25;5096353;28;19928;-57
2021/01/02 02:26:30;;;;;;;;;;;;;;;20.72;30.45;99911.84;5081890;28;19993;-57
2021/01/02 02:29:11;;;;;;;;;;;;;;;20.74;30.28;99904.06;5087683;28;19928;-58
2021/01/02 02:31:42;;;;;;;;;;;;;;;20.72;30.20;99906.31;5100224;28;19931;-59
2021/01/02 02:34:08;;;;;;;;;;;;;;;20.73;30.10;99902.41;5097780;28;19924;-59
2021/01/02 02:36:34;;;;;;;;;;;;;;;20.71;30.33;99910.19;5079585;28;19951;-57
2021/01/02 02:39:04;;;;;;;;;;;;;;;20.72;30.25;99908.25;5087835;28;19970;-57
2021/01/02 02:41:31;;;;;;;;;;;;;;;20.76;30.00;99908.50;5075568;28;20394;-58
2021/01/02 02:43:59;;;;;;;;;;;;;;;20.75;30.09;99913.19;5081906;28;19929;-58
2021/01/02 02:46:27;;;;;;;;;;;;;;;20.73;30.00;99907.13;5093143;28;19928;-58
2021/01/02 02:48:54;;;;;;;;;;;;;;;20.74;30.17;99915.16;5096463;28;19977;-58
2021/01/02 02:51:21;;;;;;;;;;;;;;;20.75;30.20;99918.75;5096328;28;19924;-58
2021/01/02 02:53:49;;;;;;;;;;;;;;;20.72;30.03;99914.59;5088802;28;19924;-58
2021/01/02 02:56:16;;;;;;;;;;;;;;;20.72;29.82;99911.84;5066717;28;20321;-58
2021/01/02 02:58:42;;;;;;;;;;;;;;;20.72;29.90;99920.16;5094512;28;20011;-58
2021/01/02 03:01:09;;;;;;;;;;;;;;;20.72;30.12;99914.59;5094826;28;19923;-57
2021/01/02 03:03:35;;;;;;;;;;;;;;;20.74;29.75;99920.69;5077935;28;19924;-57
2021/01/02 03:06:02;;;;;;;;;;;;;;;20.73;29.83;99921.81;5096203;28;20353;-57
2021/01/02 03:08:28;;;;;;;;;;;;;;;20.72;30.04;99924.84;5094866;28;19924;-59
2021/01/02 03:10:54;;;;;;;;;;;;;;;20.72;29.88;99922.09;5096517;28;19952;-58
2021/01/02 03:13:20;;;;;;;;;;;;;;;20.74;29.88;99928.16;5094412;28;19924;-57
2021/01/02 03:15:47;;;;;;;;;;;;;;;20.74;29.79;99928.16;5081498;28;19932;-60
2021/01/02 03:18:14;;;;;;;;;;;;;;;20.70;29.77;99927.91;5095843;28;20333;-58
2021/01/02 03:20:40;;;;;;;;;;;;;;;20.72;29.76;99928.47;5095831;28;19932;-58
2021/01/02 03:23:07;;;;;;;;;;;;;;;20.70;29.75;99930.69;5095614;28;20301;-59
2021/01/02 03:25:33;;;;;;;;;;;;;;;20.71;29.79;99929.56;5101174;28;19930;-58
2021/01/02 03:27:59;;;;;;;;;;;;;;;20.69;29.75;99929.03;5100842;28;19924;-58
2021/01/02 03:30:26;;;;;;;;;;;;;;;20.70;29.87;99925.16;5094478;28;20343;-58
2021/01/02 03:32:53;;;;;;;;;;;;;;;20.70;29.67;99933.47;5094888;28;19931;-58
2021/01/02 03:35:19;;;;;;;;;;;;;;;20.71;29.80;99926.81;5093929;28;19924;-58
2021/01/02 03:37:46;;;;;;;;;;;;;;;20.71;29.75;99932.34;5094763;28;19924;-57
2021/01/02 03:40:13;;;;;;;;;;;;;;;20.71;29.69;99937.88;5094976;28;20139;-58
2021/01/02 03:42:40;;;;;;;;;;;;;;;20.72;29.74;99934.00;5094520;28;20344;-58
2021/01/02 03:45:07;;;;;;;;;;;;;;;20.71;29.53;99937.06;5071981;28;19932;-57
2021/01/02 03:47:34;;;;;;;;;;;;;;;20.72;29.55;99933.16;5094650;28;20386;-58
2021/01/02 03:50:00;;;;;;;;;;;;;;;20.68;29.69;99932.91;5093860;28;20023;-58
2021/01/02 03:52:27;;;;;;;;;;;;;;;20.69;29.50;99934.56;5094814;28;19927;-58
2021/01/02 03:54:53;;;;;;;;;;;;;;;20.68;29.46;99932.91;5094868;28;20038;-58
2021/01/02 03:57:19;;;;;;;;;;;;;;;20.67;29.49;99936.81;5094591;28;20446;-57
2021/01/02 03:59:46;;;;;;;;;;;;;;;20.67;29.50;99931.25;5095418;28;19928;-58
2021/01/02 04:02:12;;;;;;;;;;;;;;;20.67;29.50;99928.50;5094884;28;20429;-58
2021/01/02 04:04:38;;;;;;;;;;;;;;;20.68;29.62;99932.91;5094595;28;19949;-58
2021/01/02 04:07:04;;;;;;;;;;;;;;;20.68;29.49;99932.09;5094596;28;19930;-59
2021/01/02 04:09:31;;;;;;;;;;;;;;;20.65;29.49;99929.91;5094632;28;19924;-58
2021/01/02 04:11:57;;;;;;;;;;;;;;;20.63;29.88;99930.19;5093448;28;19969;-57
2021/01/02 04:14:24;;;;;;;;;;;;;;;20.61;29.76;99921.34;5086755;28;20406;-57
2021/01/02 04:16:50;;;;;;;;;;;;;;;20.63;29.55;99924.66;5093584;28;19956;-58
2021/01/02 04:19:17;;;;;;;;;;;;;;;20.65;29.68;99933.50;5094708;28;19924;-58
2021/01/02 04:21:45;;;;;;;;;;;;;;;20.68;29.46;99929.31;5092988;28;19924;-58
2021/01/02 04:24:11;;;;;;;;;;;;;;;20.69;29.49;99931.81;5083600;28;19924;-59
2021/01/02 04:26:39;;;;;;;;;;;;;;;20.74;29.33;99930.94;5098291;28;19974;-58
2021/01/02 04:29:05;;;;;;;;;;;;;;;20.76;29.19;99934.25;5093944;28;20279;-58
2021/01/02 04:31:35;;;;;;;;;;;;;;;20.79;29.47;99935.63;5094493;28;20015;-58
2021/01/02 04:34:02;;;;;;;;;;;;;;;20.80;29.37;99926.16;5093062;28;19925;-58
2021/01/02 04:36:29;;;;;;;;;;;;;;;20.82;29.36;99932.22;5092795;28;19954;-57
2021/01/02 04:38:55;;;;;;;;;;;;;;;20.81;29.44;99930.56;5093766;28;19966;-57
2021/01/02 04:41:21;;;;;;;;;;;;;;;20.84;29.21;99935.53;5094076;28;19963;-57
2021/01/02 04:43:48;;;;;;;;;;;;;;;20.82;29.14;99932.22;5092183;28;20014;-58
2021/01/02 04:46:15;;;;;;;;;;;;;;;20.82;29.04;99938.59;5090328;28;19924;-57
2021/01/02 04:48:42;;;;;;;;;;;;;;;20.82;29.08;99938.59;5095229;28;19977;-58
2021/01/02 04:51:17;;;;;;;;;;;;;;;20.81;29.31;99930.56;5103730;28;19931;-57
2021/01/02 04:53:44;;;;;;;;;;;;;;;20.80;29.32;99942.78;5103378;28;19924;-56
2021/01/02 04:56:12;;;;;;;;;;;;;;;20.80;29.32;99945.53;5093850;28;19924;-58
2021/01/02 04:58:42;;;;;;;;;;;;;;;20.77;28.97;99940.63;5092676;28;19924;-58
2021/01/02 05:01:08;;;;;;;;;;;;;;;20.77;28.99;99938.66;5092711;28;20301;-58
2021/01/02 05:03:35;;;;;;;;;;;;;;;20.80;29.30;99946.38;5080685;28;19955;-58
2021/01/02 05:06:01;;;;;;;;;;;;;;;20.77;29.05;99937.84;5094783;28;19924;-60
2021/01/02 05:08:30;;;;;;;;;;;;;;;20.76;29.32;99944.50;5094380;28;20378;-60
2021/01/02 05:10:58;;;;;;;;;;;;;;;20.76;29.26;99944.50;5094799;28;19924;-59
2021/01/02 05:13:31;;;;;;;;;;;;;;;20.74;29.28;99947.56;5091264;28;19924;-59
2021/01/02 05:16:16;;;;;;;;;;;;;;;20.75;28.99;99949.22;5099110;28;19924;-59
2021/01/02 05:18:55;;;;;;;;;;;;;;;20.77;29.02;99948.91;5096638;28;19924;-59
2021/01/02 05:21:22;;;;;;;;;;;;;;;20.75;29.06;99949.22;5091053;28;19956;-60
2021/01/02 05:24:05;;;;;;;;;;;;;;;20.78;29.19;99954.16;5092285;28;19977;-59
2021/01/02 05:26:31;;;;;;;;;;;;;;;20.80;29.16;99951.09;5090699;28;19973;-59
2021/01/02 05:29:14;;;;;;;;;;;;;;;20.79;29.16;99960.53;5090066;28;20054;-59
2021/01/02 05:31:41;;;;;;;;;;;;;;;20.81;28.82;99952.75;5071315;28;19929;-59
2021/01/02 05:34:08;;;;;;;;;;;;;;;20.82;29.18;99959.94;5080320;28;19931;-59
2021/01/02 05:36:34;;;;;;;;;;;;;;;20.82;29.02;99954.38;5089349;28;19981;-59
2021/01/02 05:39:03;;;;;;;;;;;;;;;20.81;28.81;99958.28;5090259;28;19925;-59
2021/01/02 05:41:29;;;;;;;;;;;;;;;20.82;29.08;99965.47;5081170;28;19928;-59
2021/01/02 05:44:10;;;;;;;;;;;;;;;20.82;28.97;99959.94;5087619;28;20332;-59
2021/01/02 05:46:42;;;;;;;;;;;;;;;20.82;28.94;99962.69;5077533;28;20305;-59
2021/01/02 05:49:26;;;;;;;;;;;;;;;20.83;28.93;99967.13;5091744;28;19945;-59
2021/01/02 05:51:52;;;;;;;;;;;;;;;20.83;28.84;99972.66;5091601;28;19993;-59
2021/01/02 05:54:19;;;;;;;;;;;;;;;20.82;28.84;99971.84;5091464;28;19924;-60
2021/01/02 05:56:47;;;;;;;;;;;;;;;20.83;28.82;99962.41;5090386;28;19928;-60
2021/01/02 05:59:25;;;;;;;;;;;;;;;20.81;28.80;99974.91;5092124;28;20014;-59
2021/01/02 06:01:51;;;;;;;;;;;;;;;20.78;28.62;99970.78;5091036;28;20015;-58
2021/01/02 06:04:18;;;;;;;;;;;;;;;20.78;28.67;99973.56;5091475;28;19930;-60
2021/01/02 06:06:45;;;;;;;;;;;;;;;20.76;28.92;99972.19;5091198;28;20390;-60
2021/01/02 06:09:11;;;;;;;;;;;;;;;20.78;28.90;99975.50;5091193;28;20482;-59
2021/01/02 06:11:38;;;;;;;;;;;;;;;20.79;28.85;99978.00;5091297;28;20348;-59
2021/01/02 06:14:04;;;;;;;;;;;;;;;20.78;28.60;99986.59;5081883;28;20394;-58
2021/01/02 06:16:30;;;;;;;;;;;;;;;20.77;28.83;99984.94;5080344;28;19924;-59
2021/01/02 06:18:56;;;;;;;;;;;;;;;20.78;28.70;99986.59;5089890;28;20023;-59
2021/01/02 06:21:24;;;;;;;;;;;;;;;20.79;28.66;99993.78;5090192;28;19924;-59
2021/01/02 06:23:50;;;;;;;;;;;;;;;20.79;28.95;99993.78;5090150;28;20397;-59
2021/01/02 06:26:17;;;;;;;;;;;;;;;20.79;28.64;99993.78;5091233;28;20001;-60
2021/01/02 06:28:44;;;;;;;;;;;;;;;20.79;28.75;99991.00;5091356;28;19924;-60
2021/01/02 06:31:15;;;;;;;;;;;;;;;20.81;28.66;99994.28;5090229;28;19967;-60
2021/01/02 06:33:45;;;;;;;;;;;;;;;20.82;28.76;100009.78;5091740;28;20019;-60
2021/01/02 06:36:31;;;;;;;;;;;;;;;20.80;28.82;100007.31;5091413;28;20008;-59
2021/01/02 06:39:16;;;;;;;;;;;;;;;20.81;28.55;100013.69;5090866;28;20018;-59
2021/01/02 06:41:42;;;;;;;;;;;;;;;20.80;28.56;100012.84;5090802;28;20389;-59
2021/01/02 06:44:08;;;;;;;;;;;;;;;20.80;28.73;100018.38;5086335;28;19924;-59
2021/01/02 06:46:35;;;;;;;;;;;;;;;20.81;28.63;100020.03;5090995;28;19970;-59
2021/01/02 06:49:04;;;;;;;;;;;;;;;20.80;28.63;100018.38;5111544;22;20018;-64
2021/01/02 06:51:30;;;;;;;;;;;;;;;20.82;28.74;100015.34;5072183;28;19924;-62
2021/01/02 06:53:57;;;;;;;;;;;;;;;20.82;28.65;100018.09;5056917;28;19925;-65
2021/01/02 06:56:30;;;;;;;;;;;;;;;20.84;28.80;100010.34;5073021;28;19931;-64
2021/01/02 06:58:57;;;;;;;;;;;;;;;20.83;28.46;100011.44;5089137;28;20018;-64
2021/01/02 07:01:24;;;;;;;;;;;;;;;20.81;28.61;100013.69;5090261;28;19924;-64
2021/01/02 07:03:50;;;;;;;;;;;;;;;20.81;28.60;100016.44;5090152;28;20004;-64
2021/01/02 07:06:17;;;;;;;;;;;;;;;20.83;28.60;100008.69;5094096;28;20398;-64
2021/01/02 07:08:44;;;;;;;;;;;;;;;20.84;28.53;100013.09;5075877;28;19935;-64
2021/01/02 07:11:35;;;;;;;;;;;;;;;20.86;28.38;100011.69;5094103;28;19924;-64
2021/01/02 07:14:08;;;;;;;;;;;;;;;20.86;28.43;100006.16;5069903;28;20379;-64
2021/01/02 07:16:45;;;;;;;;;;;;;;;20.85;28.61;100003.69;5084478;28;20269;-65
2021/01/02 07:19:24;;;;;;;;;;;;;;;20.88;28.36;100008.66;5093616;28;20416;-63
2021/01/02 07:21:58;;;;;;;;;;;;;;;20.86;28.36;100003.38;5053792;28;20024;-64
2021/01/02 07:24:24;;;;;;;;;;;;;;;20.85;28.57;100009.22;5088708;28;19924;-64
2021/01/02 07:26:57;;;;;;;;;;;;;;;20.85;28.38;100010.03;5085546;28;19931;-65
2021/01/02 07:29:25;;;;;;;;;;;;;;;20.85;28.58;100009.22;5085615;28;20366;-64
2021/01/02 07:31:51;;;;;;;;;;;;;;;20.84;28.48;100013.09;5093120;28;19924;-65
2021/01/02 07:34:21;;;;;;;;;;;;;;;20.83;28.37;100017.81;5075155;28;19967;-68
2021/01/02 07:36:47;;;;;;;;;;;;;;;20.82;28.56;100018.94;5070220;28;19925;-65
2021/01/02 07:39:18;;;;;;;;;;;;;;;20.82;28.49;100024.47;5091887;28;20355;-65
2021/01/02 07:41:44;;;;;;;;;;;;;;;20.82;28.61;100031.94;5093514;28;19924;-64
2021/01/02 07:44:14;;;;;;;;;;;;;;;20.82;28.59;100031.94;5091734;28;19951;-63
2021/01/02 07:46:42;;;;;;;;;;;;;;;20.80;28.42;100028.63;5090864;28;19977;-63
2021/01/02 07:49:08;;;;;;;;;;;;;;;20.78;28.44;100028.13;5066335;28;19924;-63
2021/01/02 07:51:34;;;;;;;;;;;;;;;20.82;28.35;100040.25;5093679;28;20294;-65
2021/01/02 07:54:01;;;;;;;;;;;;;;;20.81;28.48;100046.91;5092452;28;19928;-63
2021/01/02 07:56:37;;;;;;;;;;;;;;;20.83;28.50;100039.16;5093338;28;19931;-64
2021/01/02 07:59:22;;;;;;;;;;;;;;;20.82;28.38;100046.63;5086006;28;19978;-64
2021/01/02 08:01:49;;;;;;;;;;;;;;;20.83;28.24;100051.06;5082391;28;19931;-63
2021/01/02 08:04:16;;;;;;;;;;;;;;;20.85;28.14;100048.00;5080151;28;20018;-65
2021/01/02 08:06:43;;;;;;;;;;;;;;;20.86;28.26;100050.47;5091697;28;20404;-64
2021/01/02 08:09:09;;;;;;;;;;;;;;;20.86;28.37;100047.72;5092857;28;19951;-64
2021/01/02 08:11:35;;;;;;;;;;;;;;;20.86;28.23;100050.47;5092514;28;20408;-65
2021/01/02 08:14:02;;;;;;;;;;;;;;;20.87;28.43;100052.13;5087848;28;19928;-64
2021/01/02 08:16:28;;;;;;;;;;;;;;;20.88;28.29;100050.19;5090344;28;19924;-63
2021/01/02 08:19:02;;;;;;;;;;;;;;;20.89;28.37;100049.91;5078218;28;19931;-63
2021/01/02 08:21:28;;;;;;;;;;;;;;;20.91;28.17;100052.41;5072880;28;19968;-66
2021/01/02 08:23:55;;;;;;;;;;;;;;;20.90;28.21;100050.75;5062632;28;19924;-65
2021/01/02 08:26:21;;;;;;;;;;;;;;;20.93;28.24;100055.69;5092864;28;19924;-64
2021/01/02 08:28:47;;;;;;;;;;;;;;;20.98;28.20;100064.81;5078631;28;19932;-63
2021/01/02 08:31:14;;;;;;;;;;;;;;;21.00;28.01;100062.59;5063884;28;19932;-64
2021/01/02 08:33:41;;;;;;;;;;;;;;;21.02;28.26;100071.44;5053887;28;19925;-64
2021/01/02 08:36:12;;;;;;;;;;;;;;;21.06;28.19;100066.16;5051725;28;19929;-65
2021/01/02 08:38:38;;;;;;;;;;;;;;;21.09;27.96;100073.88;5077339;28;19928;-64
2021/01/02 08:41:04;;;;;;;;;;;;;;;21.11;27.68;100074.44;5092016;28;19970;-65
2021/01/02 08:43:30;;;;;;;;;;;;;;;21.11;27.77;100082.75;5092131;28;19924;-65
2021/01/02 08:46:00;;;;;;;;;;;;;;;21.12;28.07;100076.06;5083776;28;20013;-64
2021/01/02 08:48:27;;;;;;;;;;;;;;;21.11;27.95;100077.19;5069473;28;19924;-64
2021/01/02 08:50:54;;;;;;;;;;;;;;;21.13;27.90;100088.81;5084286;28;19934;-64
2021/01/02 08:53:31;;;;;;;;;;;;;;;21.15;27.87;100085.72;5089013;28;19924;-64
2021/01/02 08:55:57;;;;;;;;;;;;;;;21.16;27.69;100077.13;5085252;28;19925;-63
2021/01/02 08:58:33;;;;;;;;;;;;;;;21.17;27.61;100078.78;5089369;28;20419;-64
2021/01/02 09:01:01;;;;;;;;;;;;;;;21.24;27.49;100081.25;5091423;28;19924;-64
2021/01/02 09:03:28;;;;;;;;;;;;;;;21.42;27.24;100076.97;5089965;28;19932;-64
2021/01/02 09:05:54;;;;;;;;;;;;;;;21.60;27.12;100079.00;5089936;28;20435;-66
2021/01/02 09:08:20;;;;;;;;;;;;;;;21.70;26.94;100081.69;5090372;28;19933;-64
2021/01/02 09:10:48;;;;;;;;;;;;;;;21.85;26.81;100089.81;5083481;28;19936;-64
2021/01/02 09:13:21;;;;;;;;;;;;;;;21.97;26.32;100081.94;5089038;28;19928;-64
2021/01/02 09:15:47;;;;;;;;;;;;;;;22.05;26.52;100083.28;5081705;28;19928;-63
2021/01/02 09:18:28;;;;;;;;;;;;;;;22.14;26.30;100086.22;5086742;28;20366;-64
2021/01/02 09:20:57;;;;;;;;;;;;;;;22.17;26.49;100080.91;5089918;28;19928;-63
2021/01/02 09:23:29;;;;;;;;;;;;;;;22.18;26.18;100079.75;5088133;28;20366;-64
2021/01/02 09:26:00;;;;;;;;;;;;;;;22.24;26.16;100086.09;5085428;28;19931;-64
2021/01/02 09:28:27;;;;;;;;;;;;;;;22.32;26.11;100083.50;5089438;28;19981;-64
2021/01/02 09:30:53;;;;;;;;;;;;;;;22.43;26.10;100086.97;5081358;28;19974;-65
2021/01/02 09:33:20;;;;;;;;;;;;;;;22.56;25.70;100086.22;5073543;28;19930;-65
2021/01/02 09:35:46;;;;;;;;;;;;;;;22.73;25.56;100086.53;5089214;28;19979;-64
2021/01/02 09:38:12;;;;;;;;;;;;;;;23.11;25.19;100085.75;5089615;28;19969;-65
2021/01/02 09:40:39;;;;;;;;;;;;;;;23.80;24.64;100084.84;5071766;28;20383;-64
2021/01/02 09:43:06;;;;;;;;;;;;;;;24.27;23.86;100082.81;5081641;28;19935;-64
2021/01/02 09:45:33;;;;;;;;;;;;;;;24.87;23.17;100080.66;5078598;28;19924;-64
2021/01/02 09:47:59;;;;;;;;;;;;;;;24.86;23.32;100083.75;5088456;28;19924;-65
2021/01/02 09:50:25;;;;;;;;;;;;;;;24.77;23.46;100075.31;5075284;28;19925;-65
2021/01/02 09:52:52;;;;;;;;;;;;;;;24.57;23.54;100076.63;5078094;28;19931;-64
2021/01/02 09:55:18;;;;;;;;;;;;;;;24.39;23.69;100080.34;5088890;28;20010;-64
2021/01/02 09:57:45;;;;;;;;;;;;;;;24.30;24.01;100076.63;5089234;28;19928;-64
2021/01/02 10:00:11;;;;;;;;;;;;;;;24.22;24.03;100080.13;5076402;28;19924;-64
2021/01/02 10:02:38;;;;;;;;;;;;;;;24.33;23.74;100076.84;5064922;28;20322;-64
2021/01/02 10:05:05;;;;;;;;;;;;;;;24.78;23.31;100081.72;5086082;28;19924;-64
2021/01/02 10:07:31;;;;;;;;;;;;;;;24.64;23.55;100079.78;5079154;28;19924;-65
2021/01/02 10:09:58;;;;;;;;;;;;;;;24.38;23.82;100085.09;5081591;28;19924;-65
2021/01/02 10:12:26;;;;;;;;;;;;;;;24.17;24.02;100078.28;5073326;28;19978;-63
2021/01/02 10:14:52;;;;;;;;;;;;;;;24.00;24.35;100083.59;5070395;28;19967;-64
2021/01/02 10:17:19;;;;;;;;;;;;;;;23.81;24.77;100080.94;5077727;28;20382;-65
2021/01/02 10:19:46;;;;;;;;;;;;;;;23.72;24.96;100088.31;5087644;28;19989;-65
2021/01/02 10:22:14;;;;;;;;;;;;;;;23.65;25.01;100093.47;5075558;28;19933;-65
2021/01/02 10:24:40;;;;;;;;;;;;;;;23.63;24.96;100092.94;5072492;28;19925;-65
2021/01/02 10:27:06;;;;;;;;;;;;;;;23.62;25.06;100082.94;5077310;28;19928;-65
2021/01/02 10:29:32;;;;;;;;;;;;;;;23.59;25.12;100086.31;5065979;28;19924;-64
2021/01/02 10:32:00;;;;;;;;;;;;;;;23.56;25.21;100093.34;5065710;28;20012;-64
2021/01/02 10:34:26;;;;;;;;;;;;;;;23.55;25.42;100083.34;5071321;28;19925;-65
2021/01/02 10:36:53;;;;;;;;;;;;;;;23.54;25.29;100080.88;5074536;28;20405;-65
2021/01/02 10:39:19;;;;;;;;;;;;;;;23.50;25.34;100091.75;5081075;28;20198;-65
2021/01/02 10:41:46;;;;;;;;;;;;;;;23.50;25.33;100086.19;5077752;28;19924;-65
2021/01/02 10:44:13;;;;;;;;;;;;;;;23.47;25.51;100080.41;5090219;28;19924;-65
2021/01/02 10:46:43;;;;;;;;;;;;;;;23.39;25.68;100091.09;5075814;28;19954;-64
2021/01/02 10:49:09;;;;;;;;;;;;;;;23.34;25.80;100077.28;5075016;28;19987;-64
2021/01/02 10:51:35;;;;;;;;;;;;;;;23.29;25.89;100079.31;5078900;28;20027;-65
2021/01/02 10:54:01;;;;;;;;;;;;;;;23.23;26.13;100080.53;5091233;28;20292;-65
2021/01/02 10:56:27;;;;;;;;;;;;;;;23.22;25.97;100076.09;5091324;28;19931;-64
2021/01/02 10:58:54;;;;;;;;;;;;;;;23.17;26.28;100070.63;5075664;28;20024;-63
2021/01/02 11:01:21;;;;;;;;;;;;;;;23.10;26.34;100073.78;5074857;28;19966;-65
2021/01/02 11:03:47;;;;;;;;;;;;;;;23.08;26.13;100066.88;5088350;28;20382;-65
2021/01/02 11:06:14;;;;;;;;;;;;;;;23.12;26.23;100059.59;5092650;28;20368;-64
2021/01/02 11:08:40;;;;;;;;;;;;;;;23.16;26.18;100061.47;5087206;28;20380;-65
2021/01/02 11:11:07;;;;;;;;;;;;;;;23.17;25.92;100059.50;5086636;28;19924;-64
2021/01/02 11:13:35;;;;;;;;;;;;;;;23.19;25.73;100063.63;5084362;28;19965;-64
2021/01/02 11:16:01;;;;;;;;;;;;;;;23.22;25.94;100060.22;5091889;28;20026;-65
2021/01/02 11:18:29;;;;;;;;;;;;;;;23.22;25.69;100057.44;5092630;28;19931;-64
2021/01/02 11:20:56;;;;;;;;;;;;;;;23.26;25.73;100040.97;5093568;28;19960;-64
2021/01/02 11:23:22;;;;;;;;;;;;;;;23.29;25.58;100048.72;5092786;28;19924;-65
2021/01/02 11:25:48;;;;;;;;;;;;;;;23.12;25.25;100040.13;5094032;28;20306;-65
2021/01/02 11:28:14;;;;;;;;;;;;;;;22.73;25.88;100044.88;5093780;28;19924;-65
2021/01/02 11:30:41;;;;;;;;;;;;;;;22.45;26.27;100048.63;5077148;28;20377;-66
2021/01/02 11:33:09;;;;;;;;;;;;;;;22.29;26.83;100041.59;5050674;28;20395;-65
2021/01/02 11:35:36;;;;;;;;;;;;;;;22.21;26.57;100047.81;5078057;28;19928;-64
2021/01/02 11:38:02;;;;;;;;;;;;;;;22.14;26.71;100041.81;5077915;28;19928;-66
2021/01/02 11:40:28;;;;;;;;;;;;;;;22.06;26.79;100041.34;5076124;28;19931;-64
2021/01/02 11:42:55;;;;;;;;;;;;;;;21.99;27.09;100038.06;5084093;28;19931;-63
2021/01/02 11:45:22;;;;;;;;;;;;;;;21.91;26.99;100043.44;5086713;28;19935;-64
2021/01/02 11:47:48;;;;;;;;;;;;;;;21.85;27.13;100039.06;5088106;28;19925;-65
2021/01/02 11:50:15;;;;;;;;;;;;;;;21.78;27.59;100031.09;5070528;28;19924;-65
2021/01/02 11:52:41;;;;;;;;;;;;;;;21.72;27.32;100035.88;5063808;28;19928;-65
2021/01/02 11:55:07;;;;;;;;;;;;;;;21.68;27.30;100037.59;5084320;28;19931;-65
2021/01/02 11:57:34;;;;;;;;;;;;;;;21.68;27.73;100036.75;5085323;28;19929;-65
2021/01/02 12:00:04;;;;;;;;;;;;;;;21.66;27.58;100036.22;5078716;28;20404;-64
2021/01/02 12:02:32;;;;;;;;;;;;;;;21.62;27.78;100035.16;5072638;28;19970;-65
2021/01/02 12:04:58;;;;;;;;;;;;;;;21.58;27.78;100034.91;5077369;28;19931;-64
2021/01/02 12:07:25;;;;;;;;;;;;;;;21.55;27.72;100040.22;5088564;28;19924;-64
2021/01/02 12:09:51;;;;;;;;;;;;;;;21.51;27.88;100039.16;5084611;28;19970;-65
2021/01/02 12:12:18;;;;;;;;;;;;;;;21.49;27.67;100041.38;5084715;28;20443;-66
2021/01/02 12:14:44;;;;;;;;;;;;;;;21.48;27.86;100035.03;5089977;28;20026;-65
2021/01/02 12:17:11;;;;;;;;;;;;;;;21.47;28.10;100027.84;5092588;28;19924;-64
2021/01/02 12:19:38;;;;;;;;;;;;;;;21.45;27.82;100029.25;5086460;28;19924;-66
2021/01/02 12:22:05;;;;;;;;;;;;;;;21.44;27.66;100027.59;5084772;28;19928;-65
2021/01/02 12:24:31;;;;;;;;;;;;;;;21.45;27.70;100026.47;5065219;28;19925;-64
2021/01/02 12:26:57;;;;;;;;;;;;;;;;;;5083687;28;19931;-64
2021/01/02 12:29:24;;;;;;;;;;;;;;;21.45;27.83;100030.06;5075105;28;19974;-65
2021/01/02 12:31:52;;;;;;;;;;;;;;;21.52;27.93;100032.47;5075406;28;19928;-65
2021/01/02 12:34:20;;;;;;;;;;;;;;;21.52;27.53;100027.75;5091891;28;19932;-65
2021/01/02 12:36:47;;;;;;;;;;;;;;;21.51;27.75;100036.38;5090601;28;19928;-65
2021/01/02 12:39:15;;;;;;;;;;;;;;;21.51;27.88;100028.88;5078827;28;19936;-65
2021/01/02 12:41:41;;;;;;;;;;;;;;;21.55;27.31;100034.66;5070982;28;19924;-64
2021/01/02 12:44:08;;;;;;;;;;;;;;;21.51;27.49;100030.81;5090459;28;20448;-64
2021/01/02 12:46:35;;;;;;;;;;;;;;;21.48;27.74;100023.13;5065349;28;19952;-64
2021/01/02 12:49:02;;;;;;;;;;;;;;;21.43;27.50;100031.47;5090176;22;19967;-60
2021/01/02 12:51:28;;;;;;;;;;;;;;;21.40;27.84;100041.22;5089831;28;20318;-60